Terminal Aerodrome Forecast
Issued by NWS

Home | Current Version | Previous Version | Text Only | Print | Product List | Glossary On
Versions: 1 2 3 4 5 6 7 8 9 10 11 12 13 14 15 16 17 18 19 20 21 22 23 24 25 26 27 28 29 30 31 32 33 34 35 36 37 38 39 40 41 42 43 44 45 46 47 48 49 50
000
FTUS41 KRNK 050809 AAC
TAFBCB
TAF AMD
KBCB 050809Z 0508/0606 VRB03KT 1/4SM FG OVC002
     FM051200 05004KT 3SM BR SCT002 OVC015
     FM051500 09004KT P6SM VCSH OVC030
     FM052000 12006KT 4SM -SHRA BR OVC025
      TEMPO 0520/0524 1SM TSRA BR OVC012CB
     FM060000 09005KT 5SM -SHRA BR OVC020=

USA.gov is the U.S. government's official web portal to all federal, state and local government web resources and services.